B850TB ZBTJ-ZBAA
Flight info
| Callsign | B850TB |
|---|---|
| Flight time | 0h 23m |
| Altitude | 11800 |
| Route | TAJ DCT VM DCT SOTMU |
| Aircraft | TBM8/L-SDFGRWY/S |
Departure
| Time | 2026-04-17 06:28 |
|---|---|
| Airport | Tianjin Binhai International Airport (ZBTJ) |
Arrival
| Time | 2026-04-17 06:51 |
|---|---|
| Airport | Beijing Capital International Airport (ZBAA) |
| Time | Latitude | Longitude | Altitude | Speed | Heading |
|---|---|---|---|---|---|
| 2026-04-17 06:11 | 39.12067 | 117.34462 | 1 ft | 0 kts | 243° |
| 2026-04-17 06:24 | 39.12080 | 117.34454 | 1 ft | 7 kts | 60° |
| 2026-04-17 06:25 | 39.12127 | 117.34535 | 1 ft | 17 kts | 340° |
| 2026-04-17 06:25 | 39.12261 | 117.34454 | 1 ft | 25 kts | 334° |
| 2026-04-17 06:25 | 39.12433 | 117.34349 | 1 ft | 28 kts | 334° |
| 2026-04-17 06:25 | 39.12592 | 117.34252 | 1 ft | 24 kts | 335° |
| 2026-04-17 06:26 | 39.12731 | 117.34168 | 1 ft | 10 kts | 334° |
| 2026-04-17 06:26 | 39.12812 | 117.34133 | 1 ft | 15 kts | 2° |
| 2026-04-17 06:26 | 39.12872 | 117.34200 | 0 ft | 2 kts | 66° |
| 2026-04-17 06:26 | 39.12872 | 117.34202 | 0 ft | 0 kts | 66° |
| 2026-04-17 06:27 | 39.12876 | 117.34212 | 0 ft | 6 kts | 66° |
| 2026-04-17 06:27 | 39.12902 | 117.34320 | 0 ft | 12 kts | 98° |
| 2026-04-17 06:27 | 39.12886 | 117.34344 | 0 ft | 0 kts | 154° |
| 2026-04-17 06:27 | 39.12869 | 117.34355 | 0 ft | 18 kts | 153° |
| 2026-04-17 06:28 | 39.12543 | 117.34551 | 1 ft | 84 kts | 154° |
| 2026-04-17 06:28 | 39.11905 | 117.34903 | 253 ft | 109 kts | 167° |
| 2026-04-17 06:28 | 39.11144 | 117.34909 | 795 ft | 107 kts | 184° |
| 2026-04-17 06:28 | 39.10425 | 117.34937 | 1380 ft | 99 kts | 181° |
| 2026-04-17 06:29 | 39.09762 | 117.34966 | 1910 ft | 95 kts | 181° |
| 2026-04-17 06:29 | 39.09107 | 117.34987 | 2411 ft | 94 kts | 180° |
| 2026-04-17 06:29 | 39.08447 | 117.35027 | 2904 ft | 95 kts | 182° |
| 2026-04-17 06:29 | 39.07776 | 117.35048 | 3397 ft | 98 kts | 182° |
| 2026-04-17 06:30 | 39.07065 | 117.35081 | 3856 ft | 105 kts | 181° |
| 2026-04-17 06:30 | 39.06327 | 117.35068 | 4290 ft | 107 kts | 204° |
| 2026-04-17 06:30 | 39.05974 | 117.34368 | 4732 ft | 98 kts | 285° |
| 2026-04-17 06:30 | 39.06480 | 117.33839 | 5229 ft | 99 kts | 335° |
| 2026-04-17 06:31 | 39.07096 | 117.33483 | 5727 ft | 97 kts | 330° |
| 2026-04-17 06:31 | 39.07716 | 117.33131 | 6206 ft | 97 kts | 331° |
| 2026-04-17 06:31 | 39.08340 | 117.32779 | 6640 ft | 99 kts | 332° |
| 2026-04-17 06:31 | 39.08972 | 117.32436 | 7103 ft | 98 kts | 332° |
| 2026-04-17 06:32 | 39.09599 | 117.32084 | 7557 ft | 99 kts | 332° |
| 2026-04-17 06:32 | 39.10228 | 117.31727 | 8013 ft | 99 kts | 332° |
| 2026-04-17 06:32 | 39.10854 | 117.31366 | 8469 ft | 99 kts | 332° |
| 2026-04-17 06:32 | 39.11478 | 117.30995 | 8937 ft | 99 kts | 332° |
| 2026-04-17 06:33 | 39.12100 | 117.30620 | 9395 ft | 99 kts | 332° |
| 2026-04-17 06:33 | 39.12722 | 117.30236 | 9840 ft | 99 kts | 332° |
| 2026-04-17 06:33 | 39.13345 | 117.29852 | 10259 ft | 100 kts | 332° |
| 2026-04-17 06:33 | 39.13975 | 117.29468 | 10669 ft | 100 kts | 331° |
| 2026-04-17 06:34 | 39.14623 | 117.29075 | 11015 ft | 109 kts | 332° |
| 2026-04-17 06:34 | 39.15344 | 117.28649 | 11324 ft | 122 kts | 332° |
| 2026-04-17 06:34 | 39.16159 | 117.28166 | 11656 ft | 135 kts | 332° |
| 2026-04-17 06:34 | 39.17097 | 117.27599 | 11753 ft | 165 kts | 333° |
| 2026-04-17 06:35 | 39.18224 | 117.26910 | 11757 ft | 191 kts | 332° |
| 2026-04-17 06:35 | 39.19486 | 117.26120 | 11752 ft | 211 kts | 332° |
| 2026-04-17 06:35 | 39.20847 | 117.25253 | 11747 ft | 224 kts | 332° |
| 2026-04-17 06:35 | 39.22273 | 117.24338 | 11747 ft | 233 kts | 332° |
| 2026-04-17 06:36 | 39.23742 | 117.23393 | 11746 ft | 239 kts | 332° |
| 2026-04-17 06:36 | 39.25243 | 117.22425 | 11745 ft | 242 kts | 332° |
| 2026-04-17 06:36 | 39.26759 | 117.21448 | 11744 ft | 245 kts | 332° |
| 2026-04-17 06:36 | 39.28288 | 117.20457 | 11741 ft | 246 kts | 332° |
| 2026-04-17 06:37 | 39.29822 | 117.19464 | 11740 ft | 248 kts | 332° |
| 2026-04-17 06:37 | 39.31346 | 117.18486 | 11733 ft | 248 kts | 332° |
| 2026-04-17 06:37 | 39.32911 | 117.17485 | 11731 ft | 248 kts | 332° |
| 2026-04-17 06:37 | 39.34436 | 117.16503 | 11727 ft | 248 kts | 332° |
| 2026-04-17 06:38 | 39.35988 | 117.15523 | 11723 ft | 248 kts | 332° |
| 2026-04-17 06:38 | 39.37539 | 117.14550 | 11723 ft | 248 kts | 332° |
| 2026-04-17 06:38 | 39.39095 | 117.13574 | 11723 ft | 248 kts | 332° |
| 2026-04-17 06:38 | 39.40650 | 117.12597 | 11723 ft | 248 kts | 332° |
| 2026-04-17 06:39 | 39.42203 | 117.11621 | 11724 ft | 248 kts | 332° |
| 2026-04-17 06:39 | 39.43758 | 117.10645 | 11722 ft | 248 kts | 332° |
| 2026-04-17 06:39 | 39.45314 | 117.09667 | 11724 ft | 248 kts | 332° |
| 2026-04-17 06:39 | 39.46871 | 117.08693 | 11723 ft | 248 kts | 332° |
| 2026-04-17 06:40 | 39.48426 | 117.07720 | 11723 ft | 248 kts | 332° |
| 2026-04-17 06:40 | 39.49988 | 117.06738 | 11580 ft | 253 kts | 332° |
| 2026-04-17 06:40 | 39.51587 | 117.05727 | 11338 ft | 258 kts | 332° |
| 2026-04-17 06:40 | 39.53211 | 117.04688 | 11096 ft | 262 kts | 332° |
| 2026-04-17 06:41 | 39.54826 | 117.03590 | 10859 ft | 262 kts | 323° |
| 2026-04-17 06:41 | 39.56007 | 117.01823 | 10616 ft | 261 kts | 299° |
| 2026-04-17 06:41 | 39.56741 | 116.99708 | 10382 ft | 261 kts | 293° |
| 2026-04-17 06:41 | 39.57420 | 116.97527 | 10144 ft | 261 kts | 292° |
| 2026-04-17 06:42 | 39.58090 | 116.95340 | 9908 ft | 261 kts | 292° |
| 2026-04-17 06:42 | 39.58753 | 116.93151 | 9657 ft | 261 kts | 292° |
| 2026-04-17 06:42 | 39.59415 | 116.90964 | 9397 ft | 260 kts | 292° |
| 2026-04-17 06:42 | 39.60076 | 116.88778 | 9139 ft | 260 kts | 292° |
| 2026-04-17 06:43 | 39.60739 | 116.86592 | 8804 ft | 261 kts | 291° |
| 2026-04-17 06:43 | 39.61576 | 116.84514 | 8444 ft | 262 kts | 308° |
| 2026-04-17 06:43 | 39.62938 | 116.82936 | 8087 ft | 264 kts | 321° |
| 2026-04-17 06:43 | 39.64412 | 116.81516 | 7746 ft | 264 kts | 322° |
| 2026-04-17 06:44 | 39.65889 | 116.80108 | 7405 ft | 263 kts | 322° |
| 2026-04-17 06:44 | 39.67369 | 116.78712 | 7064 ft | 263 kts | 322° |
| 2026-04-17 06:44 | 39.68844 | 116.77320 | 6730 ft | 262 kts | 322° |
| 2026-04-17 06:44 | 39.70314 | 116.75929 | 6399 ft | 261 kts | 322° |
| 2026-04-17 06:45 | 39.71785 | 116.74545 | 6049 ft | 260 kts | 322° |
| 2026-04-17 06:45 | 39.73248 | 116.73162 | 5699 ft | 259 kts | 322° |
| 2026-04-17 06:45 | 39.74704 | 116.71790 | 5355 ft | 259 kts | 322° |
| 2026-04-17 06:45 | 39.76156 | 116.70413 | 5013 ft | 257 kts | 322° |
| 2026-04-17 06:46 | 39.77601 | 116.69049 | 4671 ft | 257 kts | 322° |
| 2026-04-17 06:46 | 39.79045 | 116.67684 | 4316 ft | 256 kts | 322° |
| 2026-04-17 06:46 | 39.80572 | 116.66484 | 3960 ft | 258 kts | 332° |
| 2026-04-17 06:46 | 39.82233 | 116.65616 | 3613 ft | 258 kts | 339° |
| 2026-04-17 06:47 | 39.84002 | 116.65127 | 3282 ft | 261 kts | 351° |
| 2026-04-17 06:47 | 39.85757 | 116.64920 | 3239 ft | 252 kts | 352° |
| 2026-04-17 06:47 | 39.87470 | 116.64653 | 3241 ft | 246 kts | 349° |
| 2026-04-17 06:47 | 39.89160 | 116.64358 | 3238 ft | 244 kts | 350° |
| 2026-04-17 06:48 | 39.90858 | 116.64111 | 3059 ft | 249 kts | 351° |
| 2026-04-17 06:48 | 39.92615 | 116.63840 | 2733 ft | 258 kts | 351° |
| 2026-04-17 06:48 | 39.94411 | 116.63545 | 2383 ft | 262 kts | 352° |
| 2026-04-17 06:48 | 39.96230 | 116.63282 | 2033 ft | 264 kts | 353° |
| 2026-04-17 06:49 | 39.97992 | 116.63014 | 1693 ft | 230 kts | 353° |
| 2026-04-17 06:49 | 39.99424 | 116.62815 | 1416 ft | 189 kts | 352° |
| 2026-04-17 06:49 | 40.00647 | 116.62604 | 1174 ft | 168 kts | 351° |
| 2026-04-17 06:49 | 40.01758 | 116.62406 | 967 ft | 153 kts | 352° |
| 2026-04-17 06:50 | 40.02746 | 116.62262 | 771 ft | 136 kts | 352° |
| 2026-04-17 06:50 | 40.03626 | 116.62111 | 607 ft | 119 kts | 349° |
| 2026-04-17 06:50 | 40.04451 | 116.61958 | 449 ft | 121 kts | 350° |
| 2026-04-17 06:50 | 40.05259 | 116.61843 | 320 ft | 114 kts | 353° |
| 2026-04-17 06:51 | 40.06038 | 116.61728 | 160 ft | 113 kts | 350° |
| 2026-04-17 06:51 | 40.06721 | 116.61630 | 119 ft | 82 kts | 350° |
| 2026-04-17 06:51 | 40.07054 | 116.61582 | 117 ft | 23 kts | 352° |
| 2026-04-17 06:51 | 40.07170 | 116.61557 | 117 ft | 12 kts | 347° |
| 2026-04-17 06:52 | 40.07298 | 116.61509 | 116 ft | 31 kts | 341° |
| 2026-04-17 06:52 | 40.07438 | 116.61410 | 117 ft | 9 kts | 328° |
| 2026-04-17 06:52 | 40.07469 | 116.61383 | 118 ft | 3 kts | 323° |
| 2026-04-17 06:52 | 40.07519 | 116.61329 | 116 ft | 16 kts | 326° |
| 2026-04-17 06:53 | 40.07576 | 116.61275 | 118 ft | 14 kts | 321° |
| 2026-04-17 06:53 | 40.07688 | 116.61249 | 118 ft | 13 kts | 354° |